createdAt,value
2018-11-27T00:01:07.821Z,94805.00
2018-11-27T00:03:42.668Z,94804.00
2018-11-27T00:06:12.121Z,94809.00
2018-11-27T00:08:41.476Z,94816.00
2018-11-27T00:11:10.849Z,94811.00
2018-11-27T00:13:40.228Z,94809.00
2018-11-27T00:16:09.640Z,94810.00
2018-11-27T00:18:39.169Z,94823.00
2018-11-27T00:21:08.680Z,94815.00
2018-11-27T00:23:38.086Z,94814.00
2018-11-27T00:26:08.658Z,94820.00
2018-11-27T00:28:38.718Z,94827.00
2018-11-27T00:31:08.786Z,94823.00
2018-11-27T00:33:38.369Z,94829.00
2018-11-27T00:36:08.390Z,94831.00
2018-11-27T00:38:37.956Z,94831.00
2018-11-27T00:41:07.446Z,94831.00
2018-11-27T00:43:37.402Z,94835.00
2018-11-27T00:46:07.112Z,94831.00
2018-11-27T00:48:36.589Z,94846.00
2018-11-27T00:51:07.295Z,94838.00
2018-11-27T00:53:36.960Z,94838.00
2018-11-27T00:56:07.168Z,94836.00
2018-11-27T00:58:36.618Z,94837.00
2018-11-27T01:01:06.259Z,94847.00
2018-11-27T01:03:35.614Z,94847.00
2018-11-27T01:06:05.295Z,94853.00
2018-11-27T01:08:34.611Z,94857.00
2018-11-27T01:11:04.085Z,94854.00
2018-11-27T01:13:33.590Z,94857.00
2018-11-27T01:16:03.003Z,94862.00
2018-11-27T01:18:32.949Z,94866.00
2018-11-27T01:21:02.355Z,94875.00
2018-11-27T01:23:31.668Z,94880.00
2018-11-27T01:26:01.042Z,94867.00
2018-11-27T01:28:30.399Z,94869.00
2018-11-27T01:30:59.785Z,94877.00
2018-11-27T01:33:29.143Z,94875.00
2018-11-27T01:35:58.533Z,94879.00
2018-11-27T01:38:27.900Z,94880.00
2018-11-27T01:40:57.906Z,94884.00
2018-11-27T01:43:28.325Z,94882.00
2018-11-27T01:45:58.552Z,94887.00
2018-11-27T01:48:27.916Z,94877.00
2018-11-27T01:50:57.296Z,94885.00
2018-11-27T01:53:27.654Z,94885.00
2018-11-27T01:55:57.012Z,94876.00
2018-11-27T01:58:26.634Z,94880.00
2018-11-27T02:00:56.504Z,94889.00
2018-11-27T02:03:26.050Z,94896.00
2018-11-27T02:05:55.479Z,94892.00
2018-11-27T02:08:24.982Z,94883.00
2018-11-27T02:10:55.502Z,94885.00
2018-11-27T02:13:25.104Z,94897.00
2018-11-27T02:15:54.591Z,94887.00
2018-11-27T02:18:24.095Z,94886.00
2018-11-27T02:20:53.527Z,94891.00
2018-11-27T02:23:23.007Z,94898.00
2018-11-27T02:25:52.377Z,94895.00
2018-11-27T02:28:21.877Z,94891.00
2018-11-27T02:30:51.191Z,94896.00
2018-11-27T02:33:20.844Z,94898.00
2018-11-27T02:35:50.195Z,94906.00
2018-11-27T02:38:19.603Z,94896.00
2018-11-27T02:40:48.983Z,94898.00
2018-11-27T02:43:18.404Z,94900.00
2018-11-27T02:45:47.881Z,94909.00
2018-11-27T02:48:17.325Z,94904.00
2018-11-27T02:50:46.928Z,94901.00
2018-11-27T02:53:16.322Z,94909.00
2018-11-27T02:55:46.292Z,94915.00
2018-11-27T02:58:15.783Z,94899.00
2018-11-27T03:00:45.148Z,94907.00
2018-11-27T03:03:15.148Z,94909.00
2018-11-27T03:05:44.650Z,94917.00
2018-11-27T03:08:14.072Z,94912.00
2018-11-27T03:10:43.401Z,94919.00
2018-11-27T03:13:12.777Z,94928.00
2018-11-27T03:15:42.200Z,94925.00
2018-11-27T03:18:11.549Z,94928.00
2018-11-27T03:20:41.431Z,94928.00
2018-11-27T03:23:10.882Z,94929.00
2018-11-27T03:25:40.276Z,94930.00
2018-11-27T03:28:10.261Z,94933.00
2018-11-27T03:30:39.658Z,94933.00
2018-11-27T03:33:09.473Z,94942.00
2018-11-27T03:35:38.847Z,94939.00
2018-11-27T03:38:09.051Z,94956.00
2018-11-27T03:40:38.473Z,94954.00
2018-11-27T03:43:08.183Z,94950.00
2018-11-27T03:45:38.222Z,94951.00
2018-11-27T03:48:07.761Z,94957.00
2018-11-27T03:50:37.120Z,94965.00
2018-11-27T03:53:07.392Z,94960.00
2018-11-27T03:55:37.268Z,94960.00
2018-11-27T03:58:06.856Z,94963.00
2018-11-27T04:00:36.347Z,94956.00
2018-11-27T04:03:11.736Z,94963.00
2018-11-27T04:05:41.922Z,94974.00
2018-11-27T04:08:11.455Z,94977.00
2018-11-27T04:10:42.568Z,94975.00
2018-11-27T04:13:12.098Z,94978.00
2018-11-27T04:15:41.624Z,94970.00
2018-11-27T04:18:11.010Z,94972.00
2018-11-27T04:20:40.388Z,94980.00
2018-11-27T04:23:10.374Z,94979.00
2018-11-27T04:25:39.729Z,94983.00
2018-11-27T04:28:09.575Z,94982.00
2018-11-27T04:30:39.231Z,94992.00
2018-11-27T04:33:09.210Z,94990.00
2018-11-27T04:35:39.169Z,94986.00
2018-11-27T04:38:09.239Z,94989.00
2018-11-27T04:40:38.642Z,94998.00
2018-11-27T04:43:09.927Z,94989.00
2018-11-27T04:45:39.304Z,94995.00
2018-11-27T04:48:08.915Z,94995.00
2018-11-27T04:50:38.818Z,94998.00
2018-11-27T04:53:08.269Z,95003.00
2018-11-27T04:55:37.825Z,95004.00
2018-11-27T04:58:07.504Z,95000.00
2018-11-27T05:00:36.971Z,95009.00
2018-11-27T05:03:07.438Z,95005.00
2018-11-27T05:05:37.514Z,95011.00
2018-11-27T05:08:07.888Z,95002.00
2018-11-27T05:10:37.222Z,95014.00
2018-11-27T05:13:12.334Z,95018.00
2018-11-27T05:15:41.756Z,95031.00
2018-11-27T05:18:11.118Z,95030.00
2018-11-27T05:20:40.632Z,95031.00
2018-11-27T05:23:10.600Z,95037.00
2018-11-27T05:25:40.130Z,95037.00
2018-11-27T05:28:09.500Z,95041.00
2018-11-27T05:30:39.166Z,95040.00
2018-11-27T05:33:09.348Z,95044.00
2018-11-27T05:35:41.417Z,95052.00
2018-11-27T05:38:11.515Z,95047.00
2018-11-27T05:40:41.147Z,95048.00
2018-11-27T05:43:11.553Z,95061.00
2018-11-27T05:45:41.009Z,95052.00
2018-11-27T05:48:10.753Z,95056.00
2018-11-27T05:50:40.258Z,95059.00
2018-11-27T05:53:09.672Z,95065.00
2018-11-27T05:55:39.027Z,95068.00
2018-11-27T05:58:13.144Z,95077.00
2018-11-27T06:00:42.493Z,95087.00
2018-11-27T06:03:12.134Z,95073.00
2018-11-27T06:05:42.101Z,95080.00
2018-11-27T06:08:11.511Z,95078.00
2018-11-27T06:10:40.933Z,95085.00
2018-11-27T06:13:10.480Z,95084.00
2018-11-27T06:15:39.988Z,95101.00
2018-11-27T06:18:09.388Z,95095.00
2018-11-27T06:20:38.767Z,95103.00
2018-11-27T06:23:18.624Z,95101.00
2018-11-27T06:25:48.709Z,95109.00
2018-11-27T06:28:19.601Z,95110.00
2018-11-27T06:30:49.015Z,95110.00
2018-11-27T06:33:18.957Z,95121.00
2018-11-27T06:35:49.041Z,95121.00
2018-11-27T06:38:19.928Z,95117.00
2018-11-27T06:40:49.288Z,95128.00
2018-11-27T06:43:18.678Z,95131.00
2018-11-27T06:45:48.048Z,95131.00
2018-11-27T06:48:17.506Z,95122.00
2018-11-27T06:50:47.911Z,95131.00
2018-11-27T06:53:17.582Z,95133.00
2018-11-27T06:55:47.157Z,95137.00
2018-11-27T06:58:16.609Z,95139.00
2018-11-27T07:00:46.242Z,95143.00
2018-11-27T07:03:15.922Z,95144.00
2018-11-27T07:05:45.896Z,95156.00
2018-11-27T07:08:15.440Z,95161.00
2018-11-27T07:10:46.392Z,95164.00
2018-11-27T07:13:19.286Z,95171.00
2018-11-27T07:15:50.027Z,95176.00
2018-11-27T07:18:19.592Z,95179.00
2018-11-27T07:20:49.145Z,95181.00
2018-11-27T07:23:18.730Z,95185.00
2018-11-27T07:25:48.905Z,95183.00
2018-11-27T07:28:18.889Z,95207.00
2018-11-27T07:30:48.356Z,95191.00
2018-11-27T07:33:18.338Z,95203.00
2018-11-27T07:35:48.252Z,95207.00
2018-11-27T07:38:17.867Z,95217.00
2018-11-27T07:40:47.379Z,95219.00
2018-11-27T07:43:16.721Z,95223.00
2018-11-27T07:45:46.091Z,95228.00
2018-11-27T07:48:15.541Z,95232.00
2018-11-27T07:50:45.084Z,95233.00
2018-11-27T07:53:15.099Z,95232.00
2018-11-27T07:55:44.469Z,95235.00
2018-11-27T07:58:13.875Z,95238.00
2018-11-27T08:00:43.282Z,95235.00
2018-11-27T08:03:13.463Z,95236.00
2018-11-27T08:05:43.158Z,95232.00
2018-11-27T08:08:15.819Z,95241.00
2018-11-27T08:10:46.723Z,95248.00
2018-11-27T08:13:16.526Z,95250.00
2018-11-27T08:15:45.992Z,95244.00
2018-11-27T08:18:16.541Z,95244.00
2018-11-27T08:20:45.973Z,95255.00
2018-11-27T08:23:15.480Z,95255.00
2018-11-27T08:25:45.507Z,95265.00
2018-11-27T08:28:15.934Z,95263.00
2018-11-27T08:30:45.470Z,95272.00
2018-11-27T08:33:14.838Z,95276.00
2018-11-27T08:35:44.297Z,95272.00
2018-11-27T08:38:13.754Z,95280.00
2018-11-27T08:40:43.157Z,95276.00
2018-11-27T08:43:12.518Z,95282.00
2018-11-27T08:45:41.960Z,95289.00
2018-11-27T08:48:11.474Z,95290.00
2018-11-27T08:50:41.018Z,95287.00
2018-11-27T08:53:10.999Z,95300.00
2018-11-27T08:55:43.250Z,95308.00
2018-11-27T08:58:23.649Z,95309.00
2018-11-27T09:00:53.056Z,95306.00
2018-11-27T09:03:23.189Z,95312.00
2018-11-27T09:05:52.622Z,95322.00
2018-11-27T09:08:22.763Z,95310.00
2018-11-27T09:10:52.329Z,95317.00
2018-11-27T09:13:22.555Z,95323.00
2018-11-27T09:15:51.886Z,95333.00
2018-11-27T09:18:26.375Z,95338.00
2018-11-27T09:20:55.753Z,95334.00
2018-11-27T09:23:25.601Z,95335.00
2018-11-27T09:25:55.551Z,95336.00
2018-11-27T09:28:25.232Z,95337.00
2018-11-27T09:30:54.740Z,95345.00
2018-11-27T09:33:24.686Z,95342.00
2018-11-27T09:35:54.186Z,95351.00
2018-11-27T09:38:24.243Z,95345.00
2018-11-27T09:40:53.686Z,95355.00
2018-11-27T09:43:23.078Z,95354.00
2018-11-27T09:45:52.729Z,95354.00
2018-11-27T09:48:22.139Z,95355.00
2018-11-27T09:50:51.541Z,95359.00
2018-11-27T09:53:20.917Z,95360.00
2018-11-27T09:55:50.319Z,95362.00
2018-11-27T09:58:19.817Z,95364.00
2018-11-27T10:00:49.184Z,95357.00
2018-11-27T10:03:18.537Z,95360.00
2018-11-27T10:05:48.654Z,95356.00
2018-11-27T10:08:18.132Z,95362.00
2018-11-27T10:10:48.275Z,95360.00
2018-11-27T10:13:17.737Z,95362.00
2018-11-27T10:15:47.228Z,95363.00
2018-11-27T10:18:16.914Z,95362.00
2018-11-27T10:20:46.918Z,95374.00
2018-11-27T10:23:16.616Z,95374.00
2018-11-27T10:25:46.257Z,95370.00
2018-11-27T10:28:15.633Z,95377.00
2018-11-27T10:30:44.986Z,95374.00
2018-11-27T10:33:14.478Z,95387.00
2018-11-27T10:35:53.334Z,95384.00
2018-11-27T10:38:22.847Z,95380.00
2018-11-27T10:40:52.319Z,95374.00
2018-11-27T10:43:22.682Z,95377.00
2018-11-27T10:45:52.141Z,95379.00
2018-11-27T10:48:22.057Z,95371.00
2018-11-27T10:50:51.513Z,95379.00
2018-11-27T10:53:20.867Z,95376.00
2018-11-27T10:55:50.299Z,95376.00
2018-11-27T10:58:19.719Z,95381.00
2018-11-27T11:00:54.361Z,95383.00
2018-11-27T11:03:24.521Z,95385.00
2018-11-27T11:05:57.023Z,95394.00
2018-11-27T11:08:26.391Z,95387.00
2018-11-27T11:10:55.845Z,95393.00
2018-11-27T11:13:25.307Z,95395.00
2018-11-27T11:15:54.803Z,95394.00
2018-11-27T11:18:24.977Z,95393.00
2018-11-27T11:20:55.486Z,95386.00
2018-11-27T11:23:24.876Z,95396.00
2018-11-27T11:25:54.812Z,95393.00
2018-11-27T11:28:27.285Z,95391.00
2018-11-27T11:30:56.700Z,95406.00
2018-11-27T11:33:27.291Z,95401.00
2018-11-27T11:35:56.650Z,95401.00
2018-11-27T11:38:26.167Z,95401.00
2018-11-27T11:40:55.827Z,95403.00
2018-11-27T11:43:25.290Z,95409.00
2018-11-27T11:45:54.726Z,95403.00
2018-11-27T11:48:24.130Z,95413.00
2018-11-27T11:50:53.531Z,95406.00
2018-11-27T11:53:24.263Z,95404.00
2018-11-27T11:55:54.249Z,95408.00
2018-11-27T11:58:23.827Z,95414.00
2018-11-27T12:00:54.579Z,95410.00
2018-11-27T12:03:24.017Z,95411.00
2018-11-27T12:05:53.531Z,95420.00
2018-11-27T12:08:23.699Z,95417.00
2018-11-27T12:10:53.347Z,95414.00
2018-11-27T12:13:23.367Z,95415.00
2018-11-27T12:15:52.914Z,95416.00
2018-11-27T12:18:22.409Z,95424.00
2018-11-27T12:20:51.797Z,95418.00
2018-11-27T12:23:21.210Z,95428.00
2018-11-27T12:25:51.138Z,95419.00
2018-11-27T12:28:20.649Z,95430.00
2018-11-27T12:30:50.415Z,95427.00
2018-11-27T12:33:19.790Z,95432.00
2018-11-27T12:35:49.168Z,95434.00
2018-11-27T12:38:18.708Z,95447.00
2018-11-27T12:40:49.085Z,95441.00
2018-11-27T12:43:18.511Z,95441.00
2018-11-27T12:45:48.047Z,95439.00
2018-11-27T12:48:17.642Z,95439.00
2018-11-27T12:50:48.814Z,95454.00
2018-11-27T12:53:19.698Z,95450.00
2018-11-27T12:55:50.606Z,95468.00
2018-11-27T12:58:20.229Z,95466.00
2018-11-27T13:00:50.177Z,95458.00
2018-11-27T13:03:19.600Z,95460.00
2018-11-27T13:05:49.105Z,95463.00
2018-11-27T13:08:20.725Z,95467.00
2018-11-27T13:10:50.226Z,95475.00
2018-11-27T13:13:19.630Z,95476.00
2018-11-27T13:15:49.504Z,95476.00
2018-11-27T13:18:18.940Z,95475.00
2018-11-27T13:20:48.735Z,95474.00
2018-11-27T13:23:18.128Z,95476.00
2018-11-27T13:25:47.791Z,95481.00
2018-11-27T13:28:17.309Z,95487.00
2018-11-27T13:31:09.488Z,95482.00
2018-11-27T13:34:07.903Z,95487.00
2018-11-27T13:36:37.976Z,95497.00
2018-11-27T13:39:24.229Z,95497.00
2018-11-27T13:41:53.679Z,95495.00
2018-11-27T13:44:23.146Z,95504.00
2018-11-27T13:46:52.523Z,95500.00
2018-11-27T13:49:21.890Z,95503.00
2018-11-27T13:51:51.327Z,95505.00
2018-11-27T13:54:21.351Z,95506.00
2018-11-27T13:56:50.754Z,95505.00
2018-11-27T13:59:20.117Z,95508.00
2018-11-27T14:01:49.575Z,95503.00
2018-11-27T14:04:19.344Z,95502.00
2018-11-27T14:06:49.465Z,95508.00
2018-11-27T14:09:19.628Z,95509.00
2018-11-27T14:11:49.033Z,95516.00
2018-11-27T14:14:18.613Z,95515.00
2018-11-27T14:16:48.170Z,95516.00
2018-11-27T14:19:17.546Z,95515.00
2018-11-27T14:21:47.274Z,95515.00
2018-11-27T14:24:16.668Z,95535.00
2018-11-27T14:26:46.258Z,95535.00
2018-11-27T14:29:16.572Z,95526.00
2018-11-27T14:31:46.321Z,95541.00
2018-11-27T14:34:15.775Z,95546.00
2018-11-27T14:36:45.165Z,95545.00
2018-11-27T14:39:14.571Z,95534.00
2018-11-27T14:41:43.971Z,95552.00
2018-11-27T14:44:14.264Z,95556.00
2018-11-27T14:46:43.665Z,95556.00
2018-11-27T14:49:13.115Z,95553.00
2018-11-27T14:51:42.460Z,95547.00
2018-11-27T14:54:11.833Z,95561.00
2018-11-27T14:56:41.188Z,95564.00
2018-11-27T14:59:10.557Z,95566.00
2018-11-27T15:01:40.221Z,95573.00
2018-11-27T15:04:10.244Z,95580.00
2018-11-27T15:06:39.696Z,95580.00
2018-11-27T15:09:11.122Z,95573.00
2018-11-27T15:11:40.565Z,95577.00
2018-11-27T15:14:09.959Z,95581.00
2018-11-27T15:16:39.453Z,95587.00
2018-11-27T15:19:08.999Z,95583.00
2018-11-27T15:21:38.522Z,95595.00
2018-11-27T15:24:08.772Z,95588.00
2018-11-27T15:26:39.045Z,95587.00
2018-11-27T15:29:09.164Z,95597.00
2018-11-27T15:31:38.594Z,95605.00
2018-11-27T15:34:08.280Z,95586.00
2018-11-27T15:36:37.705Z,95600.00
2018-11-27T15:39:10.292Z,95601.00
2018-11-27T15:41:40.481Z,95608.00
2018-11-27T15:44:09.967Z,95607.00
2018-11-27T15:46:39.325Z,95615.00
2018-11-27T15:49:10.846Z,95609.00
2018-11-27T15:51:40.294Z,95621.00
2018-11-27T15:54:13.923Z,95619.00
2018-11-27T15:56:43.339Z,95624.00
2018-11-27T15:59:12.702Z,95629.00
2018-11-27T16:01:42.426Z,95634.00
2018-11-27T16:04:11.869Z,95629.00
2018-11-27T16:06:41.274Z,95629.00
2018-11-27T16:09:11.783Z,95630.00
2018-11-27T16:11:41.277Z,95640.00
2018-11-27T16:14:10.792Z,95640.00
2018-11-27T16:16:40.159Z,95641.00
2018-11-27T16:19:09.594Z,95646.00
2018-11-27T16:21:39.144Z,95649.00
2018-11-27T16:24:09.485Z,95656.00
2018-11-27T16:26:39.024Z,95660.00
2018-11-27T16:29:10.023Z,95656.00
2018-11-27T16:31:39.981Z,95661.00
2018-11-27T16:34:10.796Z,95659.00
2018-11-27T16:37:06.212Z,95668.00
2018-11-27T16:39:39.522Z,95677.00
2018-11-27T16:42:12.363Z,95673.00
2018-11-27T16:44:41.714Z,95674.00
2018-11-27T16:47:11.052Z,95692.00
2018-11-27T16:49:41.060Z,95684.00
2018-11-27T16:52:13.454Z,95682.00
2018-11-27T16:54:44.853Z,95677.00
2018-11-27T16:57:16.047Z,95687.00
2018-11-27T16:59:45.616Z,95685.00
2018-11-27T17:02:15.018Z,95682.00
2018-11-27T17:04:46.866Z,95678.00
2018-11-27T17:07:16.419Z,95687.00
2018-11-27T17:09:51.419Z,95691.00
2018-11-27T17:12:21.666Z,95690.00
2018-11-27T17:14:51.336Z,95688.00
2018-11-27T17:17:27.633Z,95688.00
2018-11-27T17:19:58.127Z,95693.00
2018-11-27T17:22:28.103Z,95701.00
2018-11-27T17:25:00.043Z,95703.00
2018-11-27T17:27:29.904Z,95695.00
2018-11-27T17:30:01.611Z,95694.00
2018-11-27T17:32:32.589Z,95697.00
2018-11-27T17:35:03.174Z,95698.00
2018-11-27T17:37:33.760Z,95708.00
2018-11-27T17:40:06.164Z,95704.00
2018-11-27T17:42:37.753Z,95700.00
2018-11-27T17:45:14.836Z,95707.00
2018-11-27T17:47:46.753Z,95715.00
2018-11-27T17:50:17.979Z,95714.00
2018-11-27T17:52:47.546Z,95721.00
2018-11-27T17:55:20.027Z,95711.00
2018-11-27T17:57:50.853Z,95724.00
2018-11-27T18:00:25.186Z,95737.00
2018-11-27T18:02:57.748Z,95737.00
2018-11-27T18:05:29.816Z,95742.00
2018-11-27T18:08:02.749Z,95741.00
2018-11-27T18:10:32.769Z,95749.00
2018-11-27T18:13:04.525Z,95755.00
2018-11-27T18:15:34.018Z,95754.00
2018-11-27T18:18:03.861Z,95756.00
2018-11-27T18:20:37.376Z,95757.00
2018-11-27T18:23:07.245Z,95757.00
2018-11-27T18:25:41.155Z,95760.00
2018-11-27T18:28:11.244Z,95760.00
2018-11-27T18:30:42.511Z,95763.00
2018-11-27T18:33:13.599Z,95761.00
2018-11-27T18:35:43.024Z,95771.00
2018-11-27T18:38:15.061Z,95770.00
2018-11-27T18:40:44.528Z,95770.00
2018-11-27T18:43:14.831Z,95777.00
2018-11-27T18:45:44.615Z,95778.00
2018-11-27T18:48:15.546Z,95775.00
2018-11-27T18:50:45.440Z,95774.00
2018-11-27T18:53:18.395Z,95774.00
2018-11-27T18:55:48.599Z,95777.00
2018-11-27T18:58:20.410Z,95779.00
2018-11-27T19:00:50.005Z,95775.00
2018-11-27T19:03:23.996Z,95769.00
2018-11-27T19:05:54.878Z,95781.00
2018-11-27T19:08:24.942Z,95780.00
2018-11-27T19:10:56.456Z,95782.00
2018-11-27T19:13:30.314Z,95773.00
2018-11-27T19:16:03.046Z,95774.00
2018-11-27T19:18:34.805Z,95777.00
2018-11-27T19:21:05.529Z,95784.00
2018-11-27T19:23:36.408Z,95784.00
2018-11-27T19:26:06.641Z,95781.00
2018-11-27T19:28:36.535Z,95788.00
2018-11-27T19:31:06.419Z,95802.00
2018-11-27T19:33:36.864Z,95791.00
2018-11-27T19:36:06.541Z,95801.00
2018-11-27T19:38:36.169Z,95798.00
2018-11-27T19:41:06.443Z,95803.00
2018-11-27T19:43:36.134Z,95807.00
2018-11-27T19:46:06.232Z,95811.00
2018-11-27T19:48:36.653Z,95809.00
2018-11-27T19:51:07.459Z,95813.00
2018-11-27T19:53:36.985Z,95813.00
2018-11-27T19:56:07.389Z,95817.00
2018-11-27T19:58:37.257Z,95822.00
2018-11-27T20:01:07.483Z,95810.00
2018-11-27T20:03:37.170Z,95819.00
2018-11-27T20:06:07.090Z,95822.00
2018-11-27T20:08:37.363Z,95826.00
2018-11-27T20:11:12.240Z,95823.00
2018-11-27T20:13:44.302Z,95829.00
2018-11-27T20:16:13.780Z,95832.00
2018-11-27T20:18:44.033Z,95843.00
2018-11-27T20:21:14.282Z,95841.00
2018-11-27T20:23:48.826Z,95838.00
2018-11-27T20:26:18.453Z,95841.00
2018-11-27T20:28:48.088Z,95835.00
2018-11-27T20:31:18.724Z,95837.00
2018-11-27T20:33:48.302Z,95847.00
2018-11-27T20:36:17.860Z,95840.00
2018-11-27T20:38:47.440Z,95847.00
2018-11-27T20:41:16.991Z,95849.00
2018-11-27T20:43:47.691Z,95848.00
2018-11-27T20:46:18.732Z,95853.00
2018-11-27T20:48:48.223Z,95855.00
2018-11-27T20:51:24.115Z,95855.00
2018-11-27T20:53:53.702Z,95869.00
2018-11-27T20:56:23.108Z,95870.00
2018-11-27T20:58:53.497Z,95861.00
2018-11-27T21:01:23.681Z,95862.00
2018-11-27T21:03:53.113Z,95872.00
2018-11-27T21:06:22.700Z,95859.00
2018-11-27T21:08:52.652Z,95857.00
2018-11-27T21:11:22.095Z,95862.00
2018-11-27T21:13:51.486Z,95862.00
2018-11-27T21:16:20.895Z,95860.00
2018-11-27T21:18:50.288Z,95874.00
2018-11-27T21:21:20.321Z,95868.00
2018-11-27T21:23:49.913Z,95881.00
2018-11-27T21:26:20.335Z,95872.00
2018-11-27T21:28:49.813Z,95881.00
2018-11-27T21:31:24.171Z,95875.00
2018-11-27T21:33:48.940Z,95877.00
2018-11-27T21:36:18.686Z,95875.00
2018-11-27T21:38:48.393Z,95872.00
2018-11-27T21:41:18.122Z,95876.00
2018-11-27T21:43:47.682Z,95876.00
2018-11-27T21:46:17.634Z,95879.00
2018-11-27T21:48:47.056Z,95879.00
2018-11-27T21:51:16.631Z,95885.00
2018-11-27T21:53:46.088Z,95883.00
2018-11-27T21:56:17.138Z,95896.00
2018-11-27T21:58:46.553Z,95885.00
2018-11-27T22:01:15.948Z,95887.00
2018-11-27T22:03:45.349Z,95878.00
2018-11-27T22:06:14.809Z,95878.00
2018-11-27T22:08:51.238Z,95891.00
2018-11-27T22:11:21.172Z,95882.00
2018-11-27T22:13:50.608Z,95886.00
2018-11-27T22:16:20.011Z,95886.00
2018-11-27T22:18:49.478Z,95892.00
2018-11-27T22:21:19.181Z,95890.00
2018-11-27T22:23:48.697Z,95893.00
2018-11-27T22:26:19.059Z,95891.00
2018-11-27T22:28:49.019Z,95897.00
2018-11-27T22:31:18.444Z,95886.00
2018-11-27T22:33:48.645Z,95894.00
2018-11-27T22:36:18.043Z,95895.00
2018-11-27T22:38:47.629Z,95900.00
2018-11-27T22:41:17.647Z,95899.00
2018-11-27T22:43:47.259Z,95908.00
2018-11-27T22:46:16.670Z,95897.00
2018-11-27T22:48:46.324Z,95897.00
2018-11-27T22:51:15.733Z,95903.00
2018-11-27T22:53:45.244Z,95902.00
2018-11-27T22:56:15.231Z,95906.00
2018-11-27T22:58:44.733Z,95908.00
2018-11-27T23:01:14.267Z,95917.00
2018-11-27T23:03:43.733Z,95919.00
2018-11-27T23:06:13.869Z,95913.00
2018-11-27T23:08:44.219Z,95912.00
2018-11-27T23:11:13.619Z,95916.00
2018-11-27T23:13:42.959Z,95906.00
2018-11-27T23:16:12.499Z,95922.00
2018-11-27T23:18:42.000Z,95930.00
2018-11-27T23:21:11.686Z,95921.00
2018-11-27T23:23:41.122Z,95905.00
2018-11-27T23:26:10.590Z,95921.00
2018-11-27T23:28:39.982Z,95912.00
2018-11-27T23:31:10.276Z,95917.00
2018-11-27T23:33:39.614Z,95913.00
2018-11-27T23:36:10.271Z,95911.00
2018-11-27T23:38:39.651Z,95918.00
2018-11-27T23:41:09.248Z,95905.00
2018-11-27T23:43:39.384Z,95902.00
2018-11-27T23:46:09.396Z,95908.00
2018-11-27T23:48:39.204Z,95893.00
2018-11-27T23:51:09.222Z,95894.00
2018-11-27T23:53:38.732Z,95897.00
2018-11-27T23:56:08.818Z,95910.00
2018-11-27T23:58:38.278Z,95899.00
